sensor_id;sensor_type;location;lat;lon;timestamp;pressure;altitude;pressure_sealevel;temperature;humidity
70546;BME280;58098;51.680;5.134;2023-09-12T00:02:04;101370.53;;;18.74;100.00
70546;BME280;58098;51.680;5.134;2023-09-12T00:04:29;101369.38;;;18.69;100.00
70546;BME280;58098;51.680;5.134;2023-09-12T00:06:55;101364.22;;;18.67;100.00
70546;BME280;58098;51.680;5.134;2023-09-12T00:09:21;101354.94;;;18.55;100.00
70546;BME280;58098;51.680;5.134;2023-09-12T00:11:46;101363.88;;;18.62;100.00
70546;BME280;58098;51.680;5.134;2023-09-12T00:14:15;101356.91;;;18.53;100.00
70546;BME280;58098;51.680;5.134;2023-09-12T00:16:41;101364.53;;;18.56;100.00
70546;BME280;58098;51.680;5.134;2023-09-12T00:19:06;101351.06;;;18.41;100.00
70546;BME280;58098;51.680;5.134;2023-09-12T00:21:31;101363.66;;;18.48;100.00
70546;BME280;58098;51.680;5.134;2023-09-12T00:23:57;101365.59;;;18.45;100.00
70546;BME280;58098;51.680;5.134;2023-09-12T00:26:22;101363.97;;;18.44;100.00
70546;BME280;58098;51.680;5.134;2023-09-12T00:28:48;101355.16;;;18.36;100.00
70546;BME280;58098;51.680;5.134;2023-09-12T00:31:13;101351.69;;;18.35;100.00
70546;BME280;58098;51.680;5.134;2023-09-12T00:33:38;101357.78;;;18.36;100.00
70546;BME280;58098;51.680;5.134;2023-09-12T00:36:04;101345.38;;;18.28;100.00
70546;BME280;58098;51.680;5.134;2023-09-12T00:38:29;101357.59;;;18.29;100.00
70546;BME280;58098;51.680;5.134;2023-09-12T00:40:55;101360.72;;;18.25;100.00
70546;BME280;58098;51.680;5.134;2023-09-12T00:43:20;101364.00;;;18.19;100.00
70546;BME280;58098;51.680;5.134;2023-09-12T00:45:45;101357.69;;;18.12;100.00
70546;BME280;58098;51.680;5.134;2023-09-12T00:48:12;101365.59;;;18.12;100.00
70546;BME280;58098;51.680;5.134;2023-09-12T00:50:39;101349.22;;;18.08;100.00
70546;BME280;58098;51.680;5.134;2023-09-12T00:53:05;101361.63;;;18.08;100.00
70546;BME280;58098;51.680;5.134;2023-09-12T00:55:32;101354.97;;;18.04;100.00
70546;BME280;58098;51.680;5.134;2023-09-12T00:57:59;101353.13;;;17.96;100.00
70546;BME280;58098;51.680;5.134;2023-09-12T01:00:25;101362.41;;;18.00;100.00
70546;BME280;58098;51.680;5.134;2023-09-12T01:02:50;101362.53;;;17.99;100.00
70546;BME280;58098;51.680;5.134;2023-09-12T01:05:19;101349.81;;;17.94;100.00
70546;BME280;58098;51.680;5.134;2023-09-12T01:07:46;101342.66;;;17.87;100.00
70546;BME280;58098;51.680;5.134;2023-09-12T01:10:11;101350.94;;;17.92;100.00
70546;BME280;58098;51.680;5.134;2023-09-12T01:12:37;101334.38;;;17.81;100.00
70546;BME280;58098;51.680;5.134;2023-09-12T01:15:03;101337.72;;;17.84;100.00
70546;BME280;58098;51.680;5.134;2023-09-12T01:17:33;101329.56;;;17.77;100.00
70546;BME280;58098;51.680;5.134;2023-09-12T01:20:00;101331.41;;;17.76;100.00
70546;BME280;58098;51.680;5.134;2023-09-12T01:22:45;101333.34;;;17.74;100.00
70546;BME280;58098;51.680;5.134;2023-09-12T01:27:52;101330.69;;;17.66;100.00
70546;BME280;58098;51.680;5.134;2023-09-12T01:30:22;101349.19;;;17.74;100.00
70546;BME280;58098;51.680;5.134;2023-09-12T01:32:48;101345.03;;;17.72;100.00
70546;BME280;58098;51.680;5.134;2023-09-12T01:35:14;101333.56;;;17.55;100.00
70546;BME280;58098;51.680;5.134;2023-09-12T01:37:39;101339.13;;;17.52;100.00
70546;BME280;58098;51.680;5.134;2023-09-12T01:40:06;101337.47;;;17.51;100.00
70546;BME280;58098;51.680;5.134;2023-09-12T01:42:43;101341.47;;;17.55;100.00
70546;BME280;58098;51.680;5.134;2023-09-12T01:45:12;101354.66;;;17.55;100.00
70546;BME280;58098;51.680;5.134;2023-09-12T01:47:39;101348.00;;;17.51;100.00
70546;BME280;58098;51.680;5.134;2023-09-12T01:50:05;101340.56;;;17.47;100.00
70546;BME280;58098;51.680;5.134;2023-09-12T01:52:33;101343.88;;;17.49;100.00
70546;BME280;58098;51.680;5.134;2023-09-12T01:54:59;101350.13;;;17.48;100.00
70546;BME280;58098;51.680;5.134;2023-09-12T01:57:25;101342.28;;;17.38;100.00
70546;BME280;58098;51.680;5.134;2023-09-12T01:59:50;101340.66;;;17.37;100.00
70546;BME280;58098;51.680;5.134;2023-09-12T02:02:16;101343.28;;;17.37;100.00
70546;BME280;58098;51.680;5.134;2023-09-12T02:04:47;101351.03;;;17.39;100.00
70546;BME280;58098;51.680;5.134;2023-09-12T02:07:16;101346.06;;;17.36;100.00
70546;BME280;58098;51.680;5.134;2023-09-12T02:09:41;101328.22;;;17.30;100.00
70546;BME280;58098;51.680;5.134;2023-09-12T02:12:06;101337.09;;;17.29;100.00
70546;BME280;58098;51.680;5.134;2023-09-12T02:14:32;101346.22;;;17.34;100.00
70546;BME280;58098;51.680;5.134;2023-09-12T02:16:57;101344.88;;;17.30;100.00
70546;BME280;58098;51.680;5.134;2023-09-12T02:19:22;101347.66;;;17.29;100.00
70546;BME280;58098;51.680;5.134;2023-09-12T02:21:48;101341.69;;;17.27;100.00
70546;BME280;58098;51.680;5.134;2023-09-12T02:24:13;101334.16;;;17.14;100.00
70546;BME280;58098;51.680;5.134;2023-09-12T02:26:38;101332.38;;;17.14;100.00
70546;BME280;58098;51.680;5.134;2023-09-12T02:29:04;101330.84;;;17.12;100.00
70546;BME280;58098;51.680;5.134;2023-09-12T02:31:32;101342.28;;;17.21;100.00
70546;BME280;58098;51.680;5.134;2023-09-12T02:33:57;101327.53;;;17.10;100.00
70546;BME280;58098;51.680;5.134;2023-09-12T02:36:23;101332.53;;;17.13;100.00
70546;BME280;58098;51.680;5.134;2023-09-12T02:38:48;101334.16;;;17.14;100.00
70546;BME280;58098;51.680;5.134;2023-09-12T02:41:14;101328.13;;;17.04;100.00
70546;BME280;58098;51.680;5.134;2023-09-12T02:43:39;101318.41;;;17.04;100.00
70546;BME280;58098;51.680;5.134;2023-09-12T02:46:04;101335.47;;;17.10;100.00
70546;BME280;58098;51.680;5.134;2023-09-12T02:48:30;101339.50;;;17.04;100.00
70546;BME280;58098;51.680;5.134;2023-09-12T02:50:55;101341.56;;;17.10;100.00
70546;BME280;58098;51.680;5.134;2023-09-12T02:53:20;101335.91;;;17.05;100.00
70546;BME280;58098;51.680;5.134;2023-09-12T02:55:46;101336.97;;;17.12;100.00
70546;BME280;58098;51.680;5.134;2023-09-12T02:58:11;101317.28;;;17.07;100.00
70546;BME280;58098;51.680;5.134;2023-09-12T03:00:40;101315.63;;;17.06;100.00
70546;BME280;58098;51.680;5.134;2023-09-12T03:03:08;101322.56;;;17.07;100.00
70546;BME280;58098;51.680;5.134;2023-09-12T03:05:35;101325.38;;;17.05;100.00
70546;BME280;58098;51.680;5.134;2023-09-12T03:08:00;101317.84;;;17.10;100.00
70546;BME280;58098;51.680;5.134;2023-09-12T03:10:26;101315.63;;;17.06;100.00
70546;BME280;58098;51.680;5.134;2023-09-12T03:12:51;101310.69;;;17.03;100.00
70546;BME280;58098;51.680;5.134;2023-09-12T03:15:16;101308.03;;;17.03;100.00
70546;BME280;58098;51.680;5.134;2023-09-12T03:17:42;101320.09;;;17.05;100.00
70546;BME280;58098;51.680;5.134;2023-09-12T03:20:08;101329.50;;;17.08;100.00
70546;BME280;58098;51.680;5.134;2023-09-12T03:22:33;101332.28;;;17.06;100.00
70546;BME280;58098;51.680;5.134;2023-09-12T03:25:03;101336.72;;;17.06;100.00
70546;BME280;58098;51.680;5.134;2023-09-12T03:27:28;101324.69;;;17.03;100.00
70546;BME280;58098;51.680;5.134;2023-09-12T03:29:54;101323.47;;;16.98;100.00
70546;BME280;58098;51.680;5.134;2023-09-12T03:32:19;101324.38;;;16.89;100.00
70546;BME280;58098;51.680;5.134;2023-09-12T03:34:44;101335.16;;;16.95;100.00
70546;BME280;58098;51.680;5.134;2023-09-12T03:37:10;101320.47;;;16.93;100.00
70546;BME280;58098;51.680;5.134;2023-09-12T03:39:35;101315.09;;;16.85;100.00
70546;BME280;58098;51.680;5.134;2023-09-12T03:42:00;101323.84;;;16.85;100.00
70546;BME280;58098;51.680;5.134;2023-09-12T03:44:26;101324.06;;;16.92;100.00
70546;BME280;58098;51.680;5.134;2023-09-12T03:46:51;101325.56;;;16.94;100.00
70546;BME280;58098;51.680;5.134;2023-09-12T03:49:16;101322.94;;;16.94;100.00
70546;BME280;58098;51.680;5.134;2023-09-12T03:51:42;101317.44;;;16.88;100.00
70546;BME280;58098;51.680;5.134;2023-09-12T03:54:07;101334.84;;;16.98;100.00
70546;BME280;58098;51.680;5.134;2023-09-12T03:56:32;101322.19;;;17.02;100.00
70546;BME280;58098;51.680;5.134;2023-09-12T03:58:58;101315.56;;;16.98;100.00
70546;BME280;58098;51.680;5.134;2023-09-12T04:01:25;101296.88;;;16.91;100.00
70546;BME280;58098;51.680;5.134;2023-09-12T04:03:50;101317.59;;;17.04;100.00
70546;BME280;58098;51.680;5.134;2023-09-12T04:06:16;101317.22;;;16.99;100.00
70546;BME280;58098;51.680;5.134;2023-09-12T04:08:41;101318.88;;;17.00;100.00
70546;BME280;58098;51.680;5.134;2023-09-12T04:11:06;101313.75;;;16.98;100.00
70546;BME280;58098;51.680;5.134;2023-09-12T04:13:32;101309.53;;;16.88;100.00
70546;BME280;58098;51.680;5.134;2023-09-12T04:15:57;101311.88;;;16.91;100.00
70546;BME280;58098;51.680;5.134;2023-09-12T04:18:22;101298.44;;;16.84;100.00
70546;BME280;58098;51.680;5.134;2023-09-12T04:20:48;101310.81;;;16.84;100.00
70546;BME280;58098;51.680;5.134;2023-09-12T04:23:13;101309.53;;;16.88;100.00
70546;BME280;58098;51.680;5.134;2023-09-12T04:25:42;101328.38;;;16.93;100.00
70546;BME280;58098;51.680;5.134;2023-09-12T04:28:07;101317.66;;;16.94;100.00
70546;BME280;58098;51.680;5.134;2023-09-12T04:30:32;101307.28;;;16.93;100.00
70546;BME280;58098;51.680;5.134;2023-09-12T04:32:58;101300.66;;;16.89;100.00
70546;BME280;58098;51.680;5.134;2023-09-12T04:35:23;101310.59;;;16.95;100.00
70546;BME280;58098;51.680;5.134;2023-09-12T04:37:50;101312.94;;;16.98;100.00
70546;BME280;58098;51.680;5.134;2023-09-12T04:40:15;101307.66;;;16.98;100.00
70546;BME280;58098;51.680;5.134;2023-09-12T04:42:41;101302.50;;;16.96;100.00
70546;BME280;58098;51.680;5.134;2023-09-12T04:45:06;101303.06;;;17.00;100.00
70546;BME280;58098;51.680;5.134;2023-09-12T04:47:32;101309.28;;;16.99;100.00
70546;BME280;58098;51.680;5.134;2023-09-12T04:49:57;101307.50;;;16.99;100.00
70546;BME280;58098;51.680;5.134;2023-09-12T04:52:22;101302.09;;;17.01;100.00
70546;BME280;58098;51.680;5.134;2023-09-12T04:54:48;101275.84;;;16.82;100.00
70546;BME280;58098;51.680;5.134;2023-09-12T04:57:13;101310.97;;;17.00;100.00
70546;BME280;58098;51.680;5.134;2023-09-12T04:59:38;101303.06;;;17.00;100.00
70546;BME280;58098;51.680;5.134;2023-09-12T05:02:04;101279.03;;;16.85;100.00
70546;BME280;58098;51.680;5.134;2023-09-12T05:04:29;101308.03;;;17.03;100.00
70546;BME280;58098;51.680;5.134;2023-09-12T05:06:55;101298.38;;;16.94;100.00
70546;BME280;58098;51.680;5.134;2023-09-12T05:09:20;101309.53;;;17.05;100.00
70546;BME280;58098;51.680;5.134;2023-09-12T05:11:46;101302.22;;;16.99;100.00
70546;BME280;58098;51.680;5.134;2023-09-12T05:14:11;101309.69;;;17.04;100.00
70546;BME280;58098;51.680;5.134;2023-09-12T05:16:37;101303.88;;;17.00;100.00
70546;BME280;58098;51.680;5.134;2023-09-12T05:19:02;101306.22;;;17.03;100.00
70546;BME280;58098;51.680;5.134;2023-09-12T05:21:28;101304.28;;;17.05;100.00
70546;BME280;58098;51.680;5.134;2023-09-12T05:23:54;101302.09;;;17.01;100.00
70546;BME280;58098;51.680;5.134;2023-09-12T05:26:19;101301.75;;;17.04;100.00
70546;BME280;58098;51.680;5.134;2023-09-12T05:28:44;101301.16;;;17.10;100.00
70546;BME280;58098;51.680;5.134;2023-09-12T05:31:10;101301.69;;;17.13;100.00
70546;BME280;58098;51.680;5.134;2023-09-12T05:33:35;101301.53;;;17.15;100.00
70546;BME280;58098;51.680;5.134;2023-09-12T05:36:01;101303.72;;;17.20;100.00
70546;BME280;58098;51.680;5.134;2023-09-12T05:38:26;101298.97;;;17.23;100.00
70546;BME280;58098;51.680;5.134;2023-09-12T05:40:51;101304.22;;;17.23;100.00
70546;BME280;58098;51.680;5.134;2023-09-12T05:43:17;101310.72;;;17.29;100.00
70546;BME280;58098;51.680;5.134;2023-09-12T05:45:43;101300.03;;;17.30;100.00
70546;BME280;58098;51.680;5.134;2023-09-12T05:48:08;101307.63;;;17.33;100.00
70546;BME280;58098;51.680;5.134;2023-09-12T05:50:35;101312.44;;;17.38;100.00
70546;BME280;58098;51.680;5.134;2023-09-12T05:53:01;101313.63;;;17.43;100.00
70546;BME280;58098;51.680;5.134;2023-09-12T05:55:27;101316.34;;;17.51;100.00
70546;BME280;58098;51.680;5.134;2023-09-12T05:57:52;101316.22;;;17.53;100.00
70546;BME280;58098;51.680;5.134;2023-09-12T06:00:18;101300.13;;;17.46;100.00
70546;BME280;58098;51.680;5.134;2023-09-12T06:02:44;101298.47;;;17.45;100.00
70546;BME280;58098;51.680;5.134;2023-09-12T06:05:09;101311.59;;;17.55;100.00
70546;BME280;58098;51.680;5.134;2023-09-12T06:07:35;101321.72;;;17.59;100.00
70546;BME280;58098;51.680;5.134;2023-09-12T06:10:01;101318.28;;;17.67;100.00
70546;BME280;58098;51.680;5.134;2023-09-12T06:12:26;101315.13;;;17.63;100.00
70546;BME280;58098;51.680;5.134;2023-09-12T06:14:51;101318.97;;;17.69;100.00
70546;BME280;58098;51.680;5.134;2023-09-12T06:17:18;101339.53;;;17.83;100.00
70546;BME280;58098;51.680;5.134;2023-09-12T06:19:43;101339.66;;;17.81;100.00
70546;BME280;58098;51.680;5.134;2023-09-12T06:22:09;101349.63;;;17.88;100.00
70546;BME280;58098;51.680;5.134;2023-09-12T06:24:34;101338.88;;;17.89;100.00
70546;BME280;58098;51.680;5.134;2023-09-12T06:26:59;101338.22;;;17.87;100.00
70546;BME280;58098;51.680;5.134;2023-09-12T06:29:25;101330.00;;;17.90;100.00
70546;BME280;58098;51.680;5.134;2023-09-12T06:31:50;101329.53;;;17.95;100.00
70546;BME280;58098;51.680;5.134;2023-09-12T06:34:15;101341.94;;;18.02;100.00
70546;BME280;58098;51.680;5.134;2023-09-12T06:36:40;101333.84;;;18.04;100.00
70546;BME280;58098;51.680;5.134;2023-09-12T06:39:10;101344.16;;;18.15;100.00
70546;BME280;58098;51.680;5.134;2023-09-12T06:41:35;101350.59;;;18.20;100.00
70546;BME280;58098;51.680;5.134;2023-09-12T06:44:00;101325.00;;;18.13;100.00
70546;BME280;58098;51.680;5.134;2023-09-12T06:46:28;101333.78;;;18.21;100.00
70546;BME280;58098;51.680;5.134;2023-09-12T06:48:53;101324.72;;;18.24;100.00
70546;BME280;58098;51.680;5.134;2023-09-12T06:51:23;101334.13;;;18.26;100.00
70546;BME280;58098;51.680;5.134;2023-09-12T06:53:49;101336.94;;;18.25;100.00
70546;BME280;58098;51.680;5.134;2023-09-12T06:56:14;101350.81;;;18.27;100.00
70546;BME280;58098;51.680;5.134;2023-09-12T06:58:39;101343.69;;;18.19;100.00
70546;BME280;58098;51.680;5.134;2023-09-12T07:01:05;101353.47;;;18.27;100.00
70546;BME280;58098;51.680;5.134;2023-09-12T07:03:32;101355.81;;;18.30;100.00
70546;BME280;58098;51.680;5.134;2023-09-12T07:05:57;101354.31;;;18.35;100.00
70546;BME280;58098;51.680;5.134;2023-09-12T07:08:23;101357.31;;;18.32;100.00
70546;BME280;58098;51.680;5.134;2023-09-12T07:10:48;101355.69;;;18.39;100.00
70546;BME280;58098;51.680;5.134;2023-09-12T07:13:14;101358.81;;;18.43;100.00
70546;BME280;58098;51.680;5.134;2023-09-12T07:15:39;101351.53;;;18.37;100.00
70546;BME280;58098;51.680;5.134;2023-09-12T07:18:05;101358.53;;;18.46;100.00
70546;BME280;58098;51.680;5.134;2023-09-12T07:20:32;101357.22;;;18.50;100.00
70546;BME280;58098;51.680;5.134;2023-09-12T07:22:57;101345.66;;;18.51;100.00
70546;BME280;58098;51.680;5.134;2023-09-12T07:25:23;101350.66;;;18.62;100.00
70546;BME280;58098;51.680;5.134;2023-09-12T07:27:49;101345.44;;;18.78;100.00
70546;BME280;58098;51.680;5.134;2023-09-12T07:30:15;101340.00;;;18.88;100.00
70546;BME280;58098;51.680;5.134;2023-09-12T07:32:41;101337.69;;;19.01;100.00
70546;BME280;58098;51.680;5.134;2023-09-12T07:35:06;101358.56;;;19.12;100.00
70546;BME280;58098;51.680;5.134;2023-09-12T07:37:32;101351.44;;;19.13;100.00
70546;BME280;58098;51.680;5.134;2023-09-12T07:39:57;101365.00;;;19.18;100.00
70546;BME280;58098;51.680;5.134;2023-09-12T07:42:23;101368.97;;;19.13;100.00
70546;BME280;58098;51.680;5.134;2023-09-12T07:44:49;101363.66;;;19.13;100.00
70546;BME280;58098;51.680;5.134;2023-09-12T07:47:14;101359.22;;;19.14;100.00
70546;BME280;58098;51.680;5.134;2023-09-12T07:49:39;101372.44;;;19.30;100.00
70546;BME280;58098;51.680;5.134;2023-09-12T07:52:05;101376.63;;;19.41;100.00
70546;BME280;58098;51.680;5.134;2023-09-12T07:54:31;101366.69;;;19.43;100.00
70546;BME280;58098;51.680;5.134;2023-09-12T07:56:56;101370.53;;;19.56;100.00
70546;BME280;58098;51.680;5.134;2023-09-12T07:59:21;101364.38;;;19.64;100.00
70546;BME280;58098;51.680;5.134;2023-09-12T08:01:47;101369.00;;;19.70;100.00
70546;BME280;58098;51.680;5.134;2023-09-12T08:04:12;101371.34;;;19.73;100.00
70546;BME280;58098;51.680;5.134;2023-09-12T08:06:40;101372.13;;;19.82;100.00
70546;BME280;58098;51.680;5.134;2023-09-12T08:09:06;101372.78;;;19.92;100.00
70546;BME280;58098;51.680;5.134;2023-09-12T08:11:31;101373.44;;;20.02;100.00
70546;BME280;58098;51.680;5.134;2023-09-12T08:13:57;101372.91;;;20.06;100.00
70546;BME280;58098;51.680;5.134;2023-09-12T08:16:22;101387.66;;;20.17;100.00
70546;BME280;58098;51.680;5.134;2023-09-12T08:18:48;101384.47;;;20.21;100.00
70546;BME280;58098;51.680;5.134;2023-09-12T08:21:13;101389.75;;;20.37;100.00
70546;BME280;58098;51.680;5.134;2023-09-12T08:23:39;101387.06;;;20.46;100.00
70546;BME280;58098;51.680;5.134;2023-09-12T08:26:04;101380.59;;;20.56;100.00
70546;BME280;58098;51.680;5.134;2023-09-12T08:28:29;101393.44;;;20.67;100.00
70546;BME280;58098;51.680;5.134;2023-09-12T08:30:55;101410.16;;;20.76;100.00
70546;BME280;58098;51.680;5.134;2023-09-12T08:33:20;101413.78;;;20.83;100.00
70546;BME280;58098;51.680;5.134;2023-09-12T08:35:46;101408.63;;;20.81;100.00
70546;BME280;58098;51.680;5.134;2023-09-12T08:38:11;101415.69;;;20.97;100.00
70546;BME280;58098;51.680;5.134;2023-09-12T08:40:37;101421.94;;;21.04;100.00
70546;BME280;58098;51.680;5.134;2023-09-12T08:43:03;101422.91;;;21.19;100.00
70546;BME280;58098;51.680;5.134;2023-09-12T08:45:29;101413.13;;;21.20;100.00
70546;BME280;58098;51.680;5.134;2023-09-12T08:47:57;101420.38;;;21.48;100.00
70546;BME280;58098;51.680;5.134;2023-09-12T08:50:23;101431.88;;;21.63;100.00
70546;BME280;58098;51.680;5.134;2023-09-12T08:52:50;101429.59;;;21.98;100.00
70546;BME280;58098;51.680;5.134;2023-09-12T08:55:15;101448.50;;;22.17;100.00
70546;BME280;58098;51.680;5.134;2023-09-12T08:57:42;101440.19;;;22.20;100.00
70546;BME280;58098;51.680;5.134;2023-09-12T09:00:09;101437.59;;;22.27;100.00
70546;BME280;58098;51.680;5.134;2023-09-12T09:02:42;101440.25;;;22.27;100.00
70546;BME280;58098;51.680;5.134;2023-09-12T09:05:09;101421.13;;;22.31;100.00
70546;BME280;58098;51.680;5.134;2023-09-12T09:07:41;101435.16;;;22.40;100.00
70546;BME280;58098;51.680;5.134;2023-09-12T09:10:10;101435.16;;;22.40;100.00
70546;BME280;58098;51.680;5.134;2023-09-12T09:12:35;101432.28;;;22.56;100.00
70546;BME280;58098;51.680;5.134;2023-09-12T09:17:46;101430.28;;;22.87;100.00
70546;BME280;58098;51.680;5.134;2023-09-12T09:20:21;101435.88;;;22.92;100.00
70546;BME280;58098;51.680;5.134;2023-09-12T09:23:07;101434.50;;;22.82;100.00
70546;BME280;58098;51.680;5.134;2023-09-12T09:25:40;101443.41;;;22.74;100.00
70546;BME280;58098;51.680;5.134;2023-09-12T09:28:16;101442.66;;;22.80;100.00
70546;BME280;58098;51.680;5.134;2023-09-12T09:30:44;101446.09;;;22.74;100.00
70546;BME280;58098;51.680;5.134;2023-09-12T09:33:10;101442.31;;;22.69;100.00
70546;BME280;58098;51.680;5.134;2023-09-12T09:35:36;101431.13;;;22.73;100.00
70546;BME280;58098;51.680;5.134;2023-09-12T09:38:05;101433.06;;;22.65;100.00
70546;BME280;58098;51.680;5.134;2023-09-12T09:40:32;101414.88;;;22.68;100.00
70546;BME280;58098;51.680;5.134;2023-09-12T09:43:02;101411.47;;;22.74;100.00
70546;BME280;58098;51.680;5.134;2023-09-12T09:45:31;101410.25;;;22.91;100.00
70546;BME280;58098;51.680;5.134;2023-09-12T09:48:08;101400.66;;;23.12;100.00
70546;BME280;58098;51.680;5.134;2023-09-12T09:50:37;101402.69;;;23.31;100.00
70546;BME280;58098;51.680;5.134;2023-09-12T09:53:02;101389.75;;;23.49;100.00
70546;BME280;58098;51.680;5.134;2023-09-12T09:55:30;101393.06;;;23.51;100.00
70546;BME280;58098;51.680;5.134;2023-09-12T09:57:57;101403.41;;;23.60;100.00
70546;BME280;58098;51.680;5.134;2023-09-12T10:00:23;101408.78;;;23.67;100.00
70546;BME280;58098;51.680;5.134;2023-09-12T10:02:50;101405.09;;;23.68;100.00
70546;BME280;58098;51.680;5.134;2023-09-12T10:05:16;101405.41;;;23.58;100.00
70546;BME280;58098;51.680;5.134;2023-09-12T10:07:46;101414.44;;;23.57;100.00
70546;BME280;58098;51.680;5.134;2023-09-12T10:10:12;101424.22;;;23.50;100.00
70546;BME280;58098;51.680;5.134;2023-09-12T10:12:43;101418.19;;;23.91;100.00
70546;BME280;58098;51.680;5.134;2023-09-12T10:15:11;101402.91;;;23.99;100.00
70546;BME280;58098;51.680;5.134;2023-09-12T10:17:42;101412.53;;;24.21;100.00
70546;BME280;58098;51.680;5.134;2023-09-12T10:20:13;101404.78;;;24.33;100.00
70546;BME280;58098;51.680;5.134;2023-09-12T10:22:43;101414.72;;;24.52;100.00
70546;BME280;58098;51.680;5.134;2023-09-12T10:25:13;101419.25;;;24.52;100.00
70546;BME280;58098;51.680;5.134;2023-09-12T10:27:38;101420.16;;;24.72;100.00
70546;BME280;58098;51.680;5.134;2023-09-12T10:30:05;101421.88;;;24.86;100.00
70546;BME280;58098;51.680;5.134;2023-09-12T10:32:32;101422.38;;;24.68;100.00
70546;BME280;58098;51.680;5.134;2023-09-12T10:34:59;101427.72;;;24.62;100.00
70546;BME280;58098;51.680;5.134;2023-09-12T10:37:26;101427.09;;;24.60;100.00
70546;BME280;58098;51.680;5.134;2023-09-12T10:39:56;101424.38;;;24.94;100.00
70546;BME280;58098;51.680;5.134;2023-09-12T10:42:24;101418.69;;;25.10;100.00
70546;BME280;58098;51.680;5.134;2023-09-12T10:44:51;101429.19;;;25.31;100.00
70546;BME280;58098;51.680;5.134;2023-09-12T10:47:17;101424.69;;;25.25;100.00
70546;BME280;58098;51.680;5.134;2023-09-12T10:49:44;101427.16;;;25.33;100.00
70546;BME280;58098;51.680;5.134;2023-09-12T10:52:09;101421.53;;;25.02;100.00
70546;BME280;58098;51.680;5.134;2023-09-12T10:54:39;101419.69;;;25.09;100.00
70546;BME280;58098;51.680;5.134;2023-09-12T10:57:06;101417.63;;;24.98;100.00
70546;BME280;58098;51.680;5.134;2023-09-12T10:59:31;101432.19;;;25.02;100.00
70546;BME280;58098;51.680;5.134;2023-09-12T11:02:26;101421.19;;;25.31;100.00
70546;BME280;58098;51.680;5.134;2023-09-12T11:04:52;101413.44;;;25.63;100.00
70546;BME280;58098;51.680;5.134;2023-09-12T11:12:46;101417.94;;;25.75;100.00
70546;BME280;58098;51.680;5.134;2023-09-12T11:15:13;101405.41;;;25.89;100.00
70546;BME280;58098;51.680;5.134;2023-09-12T11:17:41;101421.38;;;26.41;100.00
70546;BME280;58098;51.680;5.134;2023-09-12T11:20:07;101418.56;;;26.87;100.00
70546;BME280;58098;51.680;5.134;2023-09-12T11:22:36;101421.38;;;27.05;100.00
70546;BME280;58098;51.680;5.134;2023-09-12T11:25:25;101416.06;;;26.99;100.00
70546;BME280;58098;51.680;5.134;2023-09-12T11:30:22;101384.06;;;27.84;100.00
70546;BME280;58098;51.680;5.134;2023-09-12T11:32:50;101416.91;;;27.62;100.00
70546;BME280;58098;51.680;5.134;2023-09-12T11:35:16;101426.13;;;27.41;100.00
70546;BME280;58098;51.680;5.134;2023-09-12T11:37:49;101422.78;;;27.70;100.00
70546;BME280;58098;51.680;5.134;2023-09-12T11:40:43;101409.50;;;28.06;100.00
70546;BME280;58098;51.680;5.134;2023-09-12T11:43:19;101408.97;;;28.52;100.00
70546;BME280;58098;51.680;5.134;2023-09-12T11:45:45;101413.25;;;28.42;100.00
70546;BME280;58098;51.680;5.134;2023-09-12T11:48:11;101401.00;;;28.46;100.00
70546;BME280;58098;51.680;5.134;2023-09-12T11:50:37;101404.75;;;28.27;100.00
70546;BME280;58098;51.680;5.134;2023-09-12T11:53:09;101407.72;;;28.37;100.00
70546;BME280;58098;51.680;5.134;2023-09-12T11:55:43;101406.25;;;28.23;100.00
70546;BME280;58098;51.680;5.134;2023-09-12T11:58:10;101398.88;;;27.93;100.00
70546;BME280;58098;51.680;5.134;2023-09-12T12:00:37;101405.00;;;27.76;100.00
70546;BME280;58098;51.680;5.134;2023-09-12T12:03:03;101401.56;;;27.69;100.00
70546;BME280;58098;51.680;5.134;2023-09-12T12:05:29;101398.03;;;27.43;100.00
70546;BME280;58098;51.680;5.134;2023-09-12T12:07:54;101402.56;;;27.43;100.00
70546;BME280;58098;51.680;5.134;2023-09-12T12:10:20;101396.03;;;27.39;100.00
70546;BME280;58098;51.680;5.134;2023-09-12T12:12:46;101415.97;;;27.49;100.00
70546;BME280;58098;51.680;5.134;2023-09-12T12:15:12;101405.25;;;27.92;100.00
70546;BME280;58098;51.680;5.134;2023-09-12T12:17:40;101394.81;;;27.84;100.00
70546;BME280;58098;51.680;5.134;2023-09-12T12:20:10;101405.78;;;28.07;100.00
70546;BME280;58098;51.680;5.134;2023-09-12T12:22:39;101402.66;;;28.10;100.00
70546;BME280;58098;51.680;5.134;2023-09-12T12:25:10;101400.78;;;27.86;100.00
70546;BME280;58098;51.680;5.134;2023-09-12T12:27:40;101409.88;;;27.61;100.00
70546;BME280;58098;51.680;5.134;2023-09-12T12:30:11;101417.72;;;27.62;100.00
70546;BME280;58098;51.680;5.134;2023-09-12T12:32:44;101409.28;;;27.27;100.00
70546;BME280;58098;51.680;5.134;2023-09-12T12:35:22;101393.03;;;27.22;100.00
70546;BME280;58098;51.680;5.134;2023-09-12T12:37:48;101392.63;;;27.19;100.00
70546;BME280;58098;51.680;5.134;2023-09-12T12:40:14;101395.66;;;27.29;100.00
70546;BME280;58098;51.680;5.134;2023-09-12T12:42:41;101384.91;;;27.29;100.00
70546;BME280;58098;51.680;5.134;2023-09-12T12:45:14;101401.53;;;27.13;100.00
70546;BME280;58098;51.680;5.134;2023-09-12T12:47:40;101396.50;;;26.92;100.00
70546;BME280;58098;51.680;5.134;2023-09-12T12:50:13;101396.53;;;27.23;100.00
70546;BME280;58098;51.680;5.134;2023-09-12T12:52:39;101394.88;;;27.22;100.00